Time;durP1;ratioP1;P1;durP2;ratioP2;P2;SDS_P1;SDS_P2;PMS_P1;PMS_P2;Temp;Humidity;BMP_temperature;BMP_pressure;BME280_temperature;BME280_humidity;BME280_pressure;Samples;Min_cycle;Max_cycle;Signal;HPM_P1;HPM_P2
2022/04/01 00:02:01;;;;;;;9.52;6.40;;;;;;;1.60;86.82;100242.63;5018558;28;20059;-79
2022/04/01 00:04:26;;;;;;;9.80;6.05;;;;;;;1.58;86.93;100241.63;5016766;28;20022;-80
2022/04/01 00:06:51;;;;;;;8.95;5.95;;;;;;;1.55;87.68;100248.41;5021410;28;20045;-79
2022/04/01 00:09:16;;;;;;;7.78;5.30;;;;;;;1.54;87.24;100248.31;5022524;28;20024;-80
2022/04/01 00:11:42;;;;;;;7.68;5.25;;;;;;;1.53;86.74;100244.84;5018143;28;20262;-80
2022/04/01 00:14:08;;;;;;;8.10;5.38;;;;;;;1.50;87.34;100249.84;5022768;28;20055;-79
2022/04/01 00:16:33;;;;;;;8.02;5.32;;;;;;;1.47;86.75;100243.69;5020636;28;20025;-80
2022/04/01 00:18:59;;;;;;;8.88;5.60;;;;;;;1.43;87.28;100250.31;5019629;28;20085;-80
2022/04/01 00:21:24;;;;;;;7.93;5.38;;;;;;;1.45;87.78;100253.88;5018438;28;20288;-80
2022/04/01 00:23:50;;;;;;;6.50;4.65;;;;;;;1.44;87.16;100249.53;5014683;28;20029;-80
2022/04/01 00:26:15;;;;;;;7.30;4.82;;;;;;;1.39;87.07;100256.09;5020261;28;20287;-79
2022/04/01 00:28:40;;;;;;;6.95;4.80;;;;;;;1.38;87.11;100256.94;5021618;28;20301;-79
2022/04/01 00:31:06;;;;;;;7.28;4.65;;;;;;;1.36;87.60;100250.81;5019415;28;20287;-80
2022/04/01 00:33:31;;;;;;;7.60;4.97;;;;;;;1.33;87.59;100261.84;5021647;28;20040;-80
2022/04/01 00:35:57;;;;;;;6.93;4.65;;;;;;;1.33;86.70;100261.84;5012319;28;20028;-79
2022/04/01 00:38:23;;;;;;;8.90;4.88;;;;;;;1.30;87.62;100261.66;5022914;28;20017;-79
2022/04/01 00:40:51;;;;;;;7.53;4.68;;;;;;;1.28;87.25;100265.84;5022216;28;20215;-80
2022/04/01 00:43:16;;;;;;;8.05;5.00;;;;;;;1.27;87.21;100260.63;5022086;28;20176;-80
2022/04/01 00:45:41;;;;;;;7.00;4.70;;;;;;;1.26;87.87;100269.13;5022489;28;20030;-80
2022/04/01 00:48:07;;;;;;;7.47;4.43;;;;;;;1.25;87.98;100269.94;5022542;28;20029;-80
2022/04/01 00:50:33;;;;;;;6.78;4.85;;;;;;;1.26;86.68;100279.38;5020291;28;20052;-80
2022/04/01 00:52:59;;;;;;;7.10;4.55;;;;;;;1.25;87.81;100275.94;5015130;28;20014;-80
2022/04/01 00:55:27;;;;;;;7.25;4.68;;;;;;;1.23;87.18;100281.78;5017163;28;20026;-80
2022/04/01 00:57:52;;;;;;;7.65;4.57;;;;;;;1.23;87.60;100279.22;5014634;28;20025;-80
2022/04/01 01:00:19;;;;;;;7.80;4.70;;;;;;;1.22;87.93;100280.94;5020978;28;20090;-80
2022/04/01 01:02:44;;;;;;;6.78;4.55;;;;;;;1.18;87.80;100281.56;5019958;28;20018;-80
2022/04/01 01:05:10;;;;;;;8.00;4.68;;;;;;;1.18;88.24;100285.00;5013262;28;20036;-80
2022/04/01 01:07:39;;;;;;;7.20;4.50;;;;;;;1.18;88.18;100287.56;5022767;28;20113;-81
2022/04/01 01:10:05;;;;;;;;;;;;;;;1.24;86.58;100286.13;5026359;28;20022;-80
2022/04/01 01:12:31;;;;;;;7.03;4.25;;;;;;;1.18;87.32;100292.69;5022244;28;19907;-80
2022/04/01 01:15:07;;;;;;;8.18;4.47;;;;;;;1.17;87.83;100290.06;5021531;28;20018;-80
2022/04/01 01:17:33;;;;;;;7.10;4.47;;;;;;;1.15;87.87;100287.41;5023599;28;20039;-81
2022/04/01 01:19:58;;;;;;;7.57;4.30;;;;;;;1.11;88.03;100285.47;5017398;28;20017;-80
2022/04/01 01:22:23;;;;;;;8.02;4.32;;;;;;;1.11;87.86;100290.63;5024525;28;20318;-80
2022/04/01 01:24:49;;;;;;;5.93;3.95;;;;;;;1.11;87.70;100288.06;5021439;28;20032;-80
2022/04/01 01:27:15;;;;;;;6.70;4.25;;;;;;;1.08;87.75;100284.47;5018292;28;20030;-80
2022/04/01 01:29:42;;;;;;;6.72;4.13;;;;;;;1.05;87.93;100287.72;5013644;28;20065;-79
2022/04/01 01:32:14;;;;;;;7.05;4.30;;;;;;;1.02;87.96;100285.00;5020654;28;20025;-80
2022/04/01 01:34:40;;;;;;;6.70;4.32;;;;;;;1.00;88.13;100287.50;5023169;28;20025;-80
2022/04/01 01:37:10;;;;;;;6.57;4.15;;;;;;;1.01;88.66;100288.38;5023103;28;20123;-80
2022/04/01 01:39:35;;;;;;;7.38;4.55;;;;;;;1.01;88.29;100293.50;5013406;28;20026;-80
2022/04/01 01:42:00;;;;;;;6.70;4.10;;;;;;;1.02;88.18;100295.28;5015316;28;20279;-80
2022/04/01 01:44:26;;;;;;;6.40;4.47;;;;;;;1.00;88.24;100289.16;5013837;28;20029;-80
2022/04/01 01:46:52;;;;;;;6.40;4.18;;;;;;;1.00;88.77;100297.75;5014591;28;20280;-80
2022/04/01 01:49:20;;;;;;;7.05;4.18;;;;;;;1.01;88.24;100294.41;5019016;28;20064;-80
2022/04/01 01:54:42;;;;;;;6.15;3.78;;;;;;;0.99;88.20;100300.25;5021771;28;20032;-80
2022/04/01 01:57:08;;;;;;;7.05;4.38;;;;;;;0.98;88.21;100295.91;5016032;28;20026;-80
2022/04/01 01:59:34;;;;;;;8.55;4.53;;;;;;;0.97;88.19;100304.41;5018688;28;20025;-80
2022/04/01 02:02:02;;;;;;;7.30;4.60;;;;;;;0.99;88.87;100301.13;5017228;28;20038;-80
2022/04/01 02:04:27;;;;;;;6.57;4.32;;;;;;;0.99;88.77;100307.94;5025032;28;20016;-80
2022/04/01 02:06:53;;;;;;;8.30;4.80;;;;;;;0.97;88.50;100310.44;5021322;28;20026;-81
2022/04/01 02:09:18;;;;;;;6.72;4.35;;;;;;;0.99;88.26;100318.19;5020153;28;20021;-80
2022/04/01 02:11:44;;;;;;;6.85;4.60;;;;;;;0.98;88.24;100308.72;5018854;28;20030;-81
2022/04/01 02:14:11;;;;;;;6.28;4.22;;;;;;;0.98;88.44;100313.88;5020485;28;20046;-80
2022/04/01 02:16:37;;;;;;;7.18;4.80;;;;;;;0.97;89.20;100314.66;5019295;28;20333;-75
2022/04/01 02:19:02;;;;;;;9.23;4.60;;;;;;;0.96;88.25;100311.22;5016573;28;20038;-75
2022/04/01 02:21:29;;;;;;;7.03;4.53;;;;;;;0.97;88.50;100307.84;5011271;28;20026;-75
2022/04/01 02:23:55;;;;;;;6.50;4.10;;;;;;;0.97;88.45;100314.66;5019668;28;20133;-75
2022/04/01 02:26:20;;;;;;;7.13;4.75;;;;;;;0.97;88.58;100327.47;5012854;28;20026;-75
2022/04/01 02:28:45;;;;;;;7.30;4.82;;;;;;;0.96;88.37;100318.91;5022590;28;20053;-75
2022/04/01 02:31:11;;;;;;;8.88;4.80;;;;;;;0.97;89.15;100327.47;5019678;28;20044;-75
2022/04/01 02:33:37;;;;;;;7.07;4.80;;;;;;;0.96;88.21;100329.19;5019488;28;20178;-75
2022/04/01 02:36:10;;;;;;;7.05;4.47;;;;;;;0.97;88.29;100333.50;5024820;28;20089;-75
2022/04/01 02:38:38;;;;;;;7.72;4.72;;;;;;;0.97;88.21;100332.59;5014983;28;20068;-75
2022/04/01 02:41:05;;;;;;;6.93;4.30;;;;;;;0.98;88.46;100329.25;5015076;28;20216;-75
2022/04/01 02:43:31;;;;;;;7.10;4.47;;;;;;;0.98;88.89;100329.25;5017895;28;20010;-75
2022/04/01 02:45:56;;;;;;;8.02;4.95;;;;;;;0.96;88.20;100336.88;5023380;28;20089;-75
2022/04/01 02:48:21;;;;;;;6.78;4.82;;;;;;;0.95;88.09;100335.09;5021283;28;20079;-80
2022/04/01 02:50:48;;;;;;;7.13;4.72;;;;;;;0.95;88.37;100347.03;5023017;28;20028;-80
2022/04/01 02:53:16;;;;;;;6.75;4.65;;;;;;;0.92;88.51;100345.19;5017253;28;20111;-80
2022/04/01 02:55:41;;;;;;;7.72;4.88;;;;;;;0.92;88.46;100349.44;5038233;28;20092;-79
2022/04/01 02:58:08;;;;;;;7.60;4.55;;;;;;;0.93;88.21;100364.03;5018899;28;20388;-79
2022/04/01 03:00:35;;;;;;;6.93;4.55;;;;;;;0.94;88.34;100360.66;5019760;28;20022;-79
2022/04/01 03:03:04;;;;;;;7.15;4.53;;;;;;;0.91;88.29;100363.06;5019551;28;20026;-80
2022/04/01 03:05:31;;;;;;;8.70;5.07;;;;;;;0.89;88.63;100370.69;5023297;28;20044;-80
2022/04/01 03:07:56;;;;;;;7.35;4.65;;;;;;;0.91;88.77;100363.06;5016533;28;20068;-79
2022/04/01 03:10:23;;;;;;;7.47;5.28;;;;;;;0.91;88.34;100373.31;5021766;28;20037;-80
2022/04/01 03:12:49;;;;;;;8.88;5.13;;;;;;;0.90;88.46;100376.69;5022976;28;20203;-80
2022/04/01 03:15:15;;;;;;;8.25;5.38;;;;;;;0.88;88.71;100370.59;5021716;28;20013;-80
2022/04/01 03:17:40;;;;;;;8.50;5.35;;;;;;;0.90;88.28;100369.00;5019915;28;20080;-75
2022/04/01 03:20:12;;;;;;;9.32;5.68;;;;;;;0.90;88.40;100371.56;5018299;28;20067;-75
2022/04/01 03:22:37;;;;;;;8.63;5.57;;;;;;;0.89;87.69;100369.81;5022741;28;20034;-76
2022/04/01 03:25:05;;;;;;;8.40;4.65;;;;;;;0.89;88.38;100377.50;5024416;28;20030;-75
2022/04/01 03:27:31;;;;;;;9.38;5.85;;;;;;;0.85;88.14;100385.03;5023037;28;20048;-76
2022/04/01 03:29:56;;;;;;;9.68;6.22;;;;;;;0.85;88.68;100384.13;5019144;28;20184;-76
2022/04/01 03:32:21;;;;;;;9.32;5.95;;;;;;;0.86;88.27;100385.91;5022637;28;20037;-75
2022/04/01 03:34:47;;;;;;;9.52;6.22;;;;;;;0.85;88.68;100392.72;5017062;28;20026;-75
2022/04/01 03:37:12;;;;;;;9.32;6.03;;;;;;;0.88;88.98;100397.13;5022573;28;20168;-76
2022/04/01 03:39:38;;;;;;;9.60;6.38;;;;;;;0.86;87.58;100391.91;5020101;28;20048;-75
2022/04/01 03:42:06;;;;;;;9.32;5.88;;;;;;;0.85;88.47;100402.97;5014170;28;20025;-75
2022/04/01 03:44:33;;;;;;;9.65;5.80;;;;;;;0.83;88.57;100399.44;5016345;28;20220;-75
2022/04/01 03:46:59;;;;;;;8.32;5.57;;;;;;;0.83;88.91;100407.13;5018596;28;20256;-79
2022/04/01 03:49:25;;;;;;;9.15;5.82;;;;;;;0.82;89.26;100407.91;5016829;28;20029;-79
2022/04/01 03:51:51;;;;;;;8.00;5.45;;;;;;;0.80;89.08;100409.53;5020872;28;20184;-79
2022/04/01 03:54:17;;;;;;;9.27;5.50;;;;;;;0.80;88.79;100406.97;5022317;28;20331;-79
2022/04/01 03:56:47;;;;;;;8.95;5.82;;;;;;;0.80;89.46;100406.97;5015259;28;20034;-79
2022/04/01 03:59:15;;;;;;;8.75;6.07;;;;;;;0.79;88.71;100417.13;5012789;28;20269;-78
2022/04/01 04:01:40;;;;;;;8.65;5.57;;;;;;;0.78;89.52;100418.81;5016974;28;20030;-79
2022/04/01 04:04:07;;;;;;;8.82;5.43;;;;;;;0.77;88.59;100424.75;5020366;28;20085;-79
2022/04/01 04:06:37;;;;;;;10.20;5.72;;;;;;;0.78;89.47;100433.31;5021124;28;20026;-79
2022/04/01 04:09:03;;;;;;;8.85;5.20;;;;;;;0.76;89.09;100432.34;5016119;28;20024;-79
2022/04/01 04:11:31;;;;;;;8.88;5.63;;;;;;;0.73;89.54;100435.63;5019971;28;20154;-79
2022/04/01 04:13:59;;;;;;;8.48;5.60;;;;;;;0.72;88.95;100433.84;5021755;28;20090;-79
2022/04/01 04:16:39;;;;;;;8.05;5.70;;;;;;;0.72;89.36;100438.97;5021901;28;20038;-78
2022/04/01 04:19:13;;;;;;;7.78;5.40;;;;;;;0.72;89.36;100438.97;5022859;28;20032;-79
2022/04/01 04:22:00;;;;;;;7.38;5.20;;;;;;;0.71;89.58;100446.59;5013016;28;20029;-79
2022/04/01 04:24:30;;;;;;;8.90;5.60;;;;;;;0.68;89.20;100442.16;5018323;28;20110;-79
2022/04/01 04:27:15;;;;;;;10.25;5.40;;;;;;;0.68;89.26;100445.63;5012713;28;20017;-79
2022/04/01 04:29:50;;;;;;;7.82;5.38;;;;;;;0.67;88.69;100456.66;5020099;28;20032;-79
2022/04/01 04:32:36;;;;;;;8.60;5.43;;;;;;;0.71;89.12;100456.84;5017342;28;20022;-79
2022/04/01 04:35:04;;;;;;;8.38;5.50;;;;;;;0.68;89.52;100461.00;5016083;28;20019;-79
2022/04/01 04:37:33;;;;;;;8.48;5.45;;;;;;;0.67;89.68;100461.78;5017127;28;20085;-79
2022/04/01 04:39:59;;;;;;;11.02;5.72;;;;;;;0.67;89.13;100469.50;5009557;28;20069;-79
2022/04/01 04:42:27;;;;;;;9.25;5.20;;;;;;;0.67;89.04;100471.19;5020728;28;20264;-79
2022/04/01 04:44:53;;;;;;;10.18;6.15;;;;;;;0.67;89.71;100472.06;5018075;28;20168;-79
2022/04/01 04:47:25;;;;;;;9.90;5.43;;;;;;;0.66;89.20;100479.66;5018939;28;20156;-79
2022/04/01 04:49:53;;;;;;;9.57;5.93;;;;;;;0.66;89.72;100485.66;5008852;28;20014;-79
2022/04/01 04:52:20;;;;;;;10.05;6.35;;;;;;;0.64;89.09;100489.84;5019276;28;20022;-79
2022/04/01 04:54:46;;;;;;;9.55;5.82;;;;;;;0.64;89.14;100484.69;5015322;28;20188;-79
2022/04/01 04:57:11;;;;;;;10.30;6.18;;;;;;;0.66;89.21;100497.59;5021792;28;20286;-79
2022/04/01 04:59:41;;;;;;;8.95;5.70;;;;;;;0.65;88.26;100498.41;5014775;28;20058;-79
2022/04/01 05:02:14;;;;;;;9.98;5.78;;;;;;;0.64;88.72;100506.91;5016181;28;20076;-80
2022/04/01 05:05:07;;;;;;;8.32;5.43;;;;;;;0.65;87.98;100513.78;5013706;28;20089;-79
2022/04/01 05:08:00;;;;;;;8.45;5.50;;;;;;;0.64;88.34;100512.91;5019599;28;20030;-79
2022/04/01 05:10:52;;;;;;;8.57;5.60;;;;;;;0.65;87.96;100524.03;5020231;28;20088;-79
2022/04/01 05:13:54;;;;;;;9.30;5.45;;;;;;;0.67;87.32;100528.47;5014643;28;20022;-79
2022/04/01 05:16:25;;;;;;;9.57;5.28;;;;;;;0.66;87.68;100539.50;5003867;28;20332;-79
2022/04/01 05:19:03;;;;;;;9.38;5.20;;;;;;;0.67;87.14;100545.53;5009262;28;20042;-79
2022/04/01 05:21:38;;;;;;;8.98;5.40;;;;;;;0.64;86.85;100538.53;5013366;28;20012;-79
2022/04/01 05:24:06;;;;;;;8.50;5.47;;;;;;;0.64;87.41;100541.09;5012062;28;20022;-80
2022/04/01 05:26:43;;;;;;;9.40;5.18;;;;;;;0.64;88.07;100553.94;5020332;28;20096;-79
2022/04/01 05:29:26;;;;;;;9.98;5.97;;;;;;;0.62;87.45;100550.41;5017422;28;20010;-79
2022/04/01 05:32:01;;;;;;;8.88;5.82;;;;;;;0.63;87.96;100546.16;5016783;28;20326;-79
2022/04/01 05:34:46;;;;;;;10.15;5.68;;;;;;;0.63;87.08;100564.09;5016208;28;20021;-79
2022/04/01 05:37:13;;;;;;;9.18;5.70;;;;;;;0.65;87.22;100554.81;5019258;28;20100;-79
2022/04/01 05:39:42;;;;;;;8.57;5.50;;;;;;;0.64;86.69;100563.31;5019048;28;20176;-80
2022/04/01 05:42:08;;;;;;;10.87;5.87;;;;;;;0.65;87.01;100581.34;5013949;28;20026;-79
2022/04/01 05:44:35;;;;;;;9.73;6.05;;;;;;;0.67;86.95;100563.50;5014902;28;20268;-79
2022/04/01 05:47:03;;;;;;;8.63;5.95;;;;;;;0.63;86.62;100584.59;5018824;28;20075;-79
2022/04/01 05:49:28;;;;;;;9.95;6.20;;;;;;;0.62;86.93;100590.53;5015038;28;20183;-79
2022/04/01 05:51:54;;;;;;;9.20;5.70;;;;;;;0.63;86.84;100594.88;5019600;28;20291;-79
2022/04/01 05:54:22;;;;;;;10.50;6.13;;;;;;;0.62;87.30;100601.69;5014040;28;20045;-80
2022/04/01 05:56:49;;;;;;;9.27;6.22;;;;;;;0.62;87.25;100606.81;5017320;28;20026;-80
2022/04/01 05:59:20;;;;;;;11.40;5.53;;;;;;;0.62;86.54;100603.34;5019588;28;20018;-80
2022/04/01 06:02:22;;;;;;;8.18;5.68;;;;;;;0.62;86.50;100611.03;5025574;28;20032;-79
2022/04/01 06:05:09;;;;;;;8.48;5.18;;;;;;;0.60;86.71;100612.63;5020891;28;20037;-80
2022/04/01 06:07:42;;;;;;;8.20;5.07;;;;;;;0.60;86.43;100612.63;5023125;28;20038;-79
2022/04/01 06:10:18;;;;;;;9.15;5.53;;;;;;;0.59;86.68;100627.09;5024056;28;20145;-79
2022/04/01 06:12:58;;;;;;;9.10;5.53;;;;;;;0.61;87.42;100632.31;5023608;28;20025;-79
2022/04/01 06:15:42;;;;;;;11.00;5.85;;;;;;;0.59;86.28;100627.09;5021830;28;20092;-79
2022/04/01 06:18:22;;;;;;;10.77;5.53;;;;;;;0.63;85.97;100646.13;5011856;28;20038;-79
2022/04/01 06:20:48;;;;;;;9.48;5.53;;;;;;;0.65;85.15;100636.84;5024977;28;20022;-79
2022/04/01 06:23:39;;;;;;;9.93;5.60;;;;;;;0.62;86.64;100649.50;5024475;28;20025;-79
2022/04/01 06:26:11;;;;;;;9.70;5.30;;;;;;;0.62;86.40;100652.06;5020706;28;20265;-79
2022/04/01 06:28:45;;;;;;;9.57;5.43;;;;;;;0.63;86.03;100657.28;5018476;28;20085;-78
2022/04/01 06:31:12;;;;;;;10.68;5.80;;;;;;;0.64;86.04;100661.63;5024049;28;20252;-79
2022/04/01 06:33:55;;;;;;;9.15;5.32;;;;;;;0.65;85.88;100665.97;5018688;28;20030;-79
2022/04/01 06:36:32;;;;;;;8.98;5.10;;;;;;;0.65;86.36;100673.66;5020175;28;20219;-79
2022/04/01 06:39:08;;;;;;;9.05;5.13;;;;;;;0.69;85.33;100679.84;5019414;28;20389;-79
2022/04/01 06:41:43;;;;;;;9.57;4.95;;;;;;;0.66;85.38;100683.09;5024447;28;20298;-78
2022/04/01 06:44:09;;;;;;;7.80;4.80;;;;;;;0.66;85.52;100685.66;5020292;28;20034;-78
2022/04/01 06:46:35;;;;;;;10.35;5.50;;;;;;;0.68;85.34;100688.31;5020475;28;20037;-78
2022/04/01 06:49:00;;;;;;;8.98;5.03;;;;;;;0.66;85.80;100692.47;5019793;28;20022;-79
2022/04/01 06:51:25;;;;;;;8.98;4.95;;;;;;;0.66;85.72;100701.03;5019313;28;20014;-79
2022/04/01 06:53:51;;;;;;;8.25;4.60;;;;;;;0.67;85.22;100702.81;5014222;28;20018;-79
2022/04/01 06:56:16;;;;;;;10.65;4.25;;;;;;;0.65;85.18;100708.63;5016913;28;20252;-79
2022/04/01 06:58:41;;;;;;;8.82;4.47;;;;;;;0.65;85.08;100703.50;5024262;28;20029;-78
2022/04/01 07:01:07;;;;;;;7.43;4.45;;;;;;;0.64;85.15;100719.72;5015455;28;20029;-78
2022/04/01 07:03:33;;;;;;;8.95;4.40;;;;;;;0.63;84.38;100711.13;5023639;28;20068;-78
2022/04/01 07:05:58;;;;;;;7.57;4.25;;;;;;;0.62;85.39;100716.16;5019433;28;20018;-78
2022/04/01 07:08:24;;;;;;;9.77;4.50;;;;;;;0.65;85.06;100716.34;5017949;28;20025;-78
2022/04/01 07:10:50;;;;;;;7.38;4.57;;;;;;;0.64;84.86;100719.72;5013326;28;20022;-78
2022/04/01 07:13:15;;;;;;;8.65;4.93;;;;;;;0.64;84.43;100723.16;5016694;28;20088;-78
2022/04/01 07:15:41;;;;;;;7.82;4.25;;;;;;;0.64;84.79;100722.28;5011175;28;20384;-79
2022/04/01 07:18:07;;;;;;;7.32;4.15;;;;;;;0.65;85.14;100726.59;5020783;28;20030;-78
2022/04/01 07:20:32;;;;;;;7.80;4.30;;;;;;;0.65;84.90;100724.94;5023081;28;20026;-78
2022/04/01 07:22:58;;;;;;;7.30;4.47;;;;;;;0.66;85.02;100728.38;5023552;28;20018;-78
2022/04/01 07:25:23;;;;;;;7.45;4.28;;;;;;;0.68;84.48;100724.22;5023866;28;20030;-79
2022/04/01 07:27:50;;;;;;;7.75;4.20;;;;;;;0.67;84.61;100732.72;5014557;28;20049;-78
2022/04/01 07:30:15;;;;;;;9.23;4.53;;;;;;;0.67;84.68;100745.53;5018734;28;20136;-78
2022/04/01 07:32:41;;;;;;;8.32;5.05;;;;;;;0.67;84.99;100742.97;5018969;28;20030;-78
2022/04/01 07:35:11;;;;;;;9.15;4.78;;;;;;;0.68;85.58;100747.28;5012461;28;20269;-78
2022/04/01 07:37:37;;;;;;;7.50;4.78;;;;;;;0.71;85.50;100749.16;5019910;28;20093;-78
2022/04/01 07:40:05;;;;;;;9.38;4.35;;;;;;;0.70;85.05;100753.41;5018984;28;20040;-78
2022/04/01 07:42:30;;;;;;;8.48;4.35;;;;;;;0.70;85.03;100758.53;5022532;28;20097;-78
2022/04/01 07:44:56;;;;;;;8.02;4.28;;;;;;;0.71;84.42;100757.75;5023687;28;20018;-78
2022/04/01 07:47:22;;;;;;;6.65;3.90;;;;;;;0.73;84.21;100762.97;5023748;28;20017;-78
2022/04/01 07:49:51;;;;;;;8.55;4.88;;;;;;;0.72;84.10;100772.34;5023831;28;20181;-78
2022/04/01 07:52:18;;;;;;;7.05;4.32;;;;;;;0.74;84.77;100770.78;5023358;28;20026;-78
2022/04/01 07:54:44;;;;;;;5.90;3.47;;;;;;;0.73;84.43;100776.69;5022934;28;20085;-78
2022/04/01 07:57:12;;;;;;;6.88;3.47;;;;;;;0.74;84.06;100775.91;5023483;28;20052;-78
2022/04/01 07:59:37;;;;;;;6.65;3.92;;;;;;;0.72;83.93;100780.03;5024220;28;20022;-78
2022/04/01 08:02:04;;;;;;;7.72;4.38;;;;;;;0.73;83.80;100774.13;5023757;28;20033;-78
2022/04/01 08:04:29;;;;;;;6.88;3.78;;;;;;;0.75;84.05;100781.91;5022408;28;20049;-78
2022/04/01 08:06:55;;;;;;;7.90;3.97;;;;;;;0.75;83.43;100793.03;5022650;28;20014;-78
2022/04/01 08:09:21;;;;;;;7.38;3.95;;;;;;;0.76;84.00;100784.56;5023775;28;20045;-78
2022/04/01 08:11:47;;;;;;;6.63;3.80;;;;;;;0.77;85.24;100790.56;5023574;28;20029;-78
2022/04/01 08:14:12;;;;;;;6.68;3.80;;;;;;;0.76;84.51;100793.94;5023110;28;20203;-78
2022/04/01 08:16:38;;;;;;;7.78;4.20;;;;;;;0.76;84.38;100799.94;5022425;28;20338;-78
2022/04/01 08:19:04;;;;;;;8.68;4.10;;;;;;;0.78;83.63;100806.06;5018529;28;20260;-78
2022/04/01 08:21:31;;;;;;;5.82;3.63;;;;;;;0.78;83.71;100803.50;5022056;28;20045;-78
2022/04/01 08:23:57;;;;;;;7.18;4.10;;;;;;;0.77;84.18;100817.13;5022933;28;20014;-78
2022/04/01 08:26:23;;;;;;;7.38;4.03;;;;;;;0.77;84.57;100814.56;5023025;28;20021;-78
2022/04/01 08:28:48;;;;;;;7.13;3.88;;;;;;;0.75;84.20;100821.25;5023432;28;20018;-77
2022/04/01 08:31:13;;;;;;;8.63;4.00;;;;;;;0.78;84.26;100823.13;5021074;28;20017;-78
2022/04/01 08:33:39;;;;;;;6.30;3.58;;;;;;;0.78;83.98;100828.25;5021971;28;20032;-79
2022/04/01 08:36:04;;;;;;;6.68;3.90;;;;;;;0.77;84.01;100829.94;5023295;28;20018;-78
2022/04/01 08:38:30;;;;;;;8.07;3.90;;;;;;;0.79;84.28;100835.16;5022066;28;20028;-79
2022/04/01 08:40:55;;;;;;;10.40;4.03;;;;;;;0.80;83.65;100835.25;5023501;28;20053;-78
2022/04/01 08:43:27;;;;;;;6.95;3.30;;;;;;;0.82;82.83;100831.09;5023351;28;20026;-78
2022/04/01 08:45:53;;;;;;;6.30;3.42;;;;;;;0.82;82.89;100841.34;5023109;28;20035;-78
2022/04/01 08:48:18;;;;;;;5.97;3.10;;;;;;;0.82;83.74;100854.19;5022706;28;20041;-79
2022/04/01 08:50:44;;;;;;;7.57;3.25;;;;;;;0.85;83.19;100859.53;5023001;28;20162;-78
2022/04/01 08:53:10;;;;;;;5.47;3.00;;;;;;;0.86;82.39;100863.84;5022907;28;20207;-79
2022/04/01 08:55:35;;;;;;;6.07;2.88;;;;;;;0.90;81.62;100866.59;5022831;28;20077;-79
2022/04/01 08:58:00;;;;;;;4.53;2.63;;;;;;;0.92;81.97;100867.59;5021322;28;20100;-75
2022/04/01 09:00:26;;;;;;;5.40;2.80;;;;;;;0.94;81.84;100876.25;5022177;28;20144;-74
2022/04/01 09:03:00;;;;;;;5.18;2.45;;;;;;;0.96;81.86;100874.72;5023007;28;20026;-75
2022/04/01 09:05:26;;;;;;;8.07;2.88;;;;;;;0.97;82.52;100879.94;5022368;28;20026;-75
2022/04/01 09:08:08;;;;;;;5.93;2.75;;;;;;;1.00;83.50;100885.25;5023166;28;20036;-75
2022/04/01 09:10:55;;;;;;;5.35;2.75;;;;;;;1.03;82.23;100890.56;5022679;28;20022;-74
2022/04/01 09:13:23;;;;;;;6.50;3.28;;;;;;;1.03;82.41;100893.13;5023332;28;20026;-75
2022/04/01 09:15:49;;;;;;;6.80;3.45;;;;;;;1.07;83.00;100893.31;5021706;28;20017;-75
2022/04/01 09:18:41;;;;;;;6.00;3.10;;;;;;;1.09;82.84;100896.88;5021202;28;20093;-75
2022/04/01 09:21:12;;;;;;;6.20;3.20;;;;;;;1.09;82.94;100897.75;5022841;28;20022;-75
2022/04/01 09:23:39;;;;;;;5.50;2.70;;;;;;;1.13;82.14;100896.25;5021461;28;20045;-75
2022/04/01 09:26:05;;;;;;;5.00;2.70;;;;;;;1.13;83.31;100904.88;5021401;28;20017;-75
2022/04/01 09:28:38;;;;;;;5.40;2.80;;;;;;;1.14;82.91;100909.19;5022010;28;20279;-75
2022/04/01 09:31:15;;;;;;;5.70;2.58;;;;;;;1.17;83.13;100911.06;5016549;28;20038;-75
2022/04/01 09:33:43;;;;;;;6.05;2.88;;;;;;;1.19;83.33;100906.94;5026205;28;20599;-75
2022/04/01 09:36:12;;;;;;;5.25;2.50;;;;;;;1.20;83.12;100907.03;5026041;28;20018;-75
2022/04/01 09:38:37;;;;;;;5.30;2.90;;;;;;;1.22;83.36;100904.56;5024782;28;20205;-75
2022/04/01 09:41:06;;;;;;;5.32;2.50;;;;;;;1.26;83.58;100910.75;5026533;28;20020;-75
2022/04/01 09:43:38;;;;;;;6.60;3.00;;;;;;;1.26;83.22;100914.22;5025174;28;20665;-75
2022/04/01 09:46:05;;;;;;;6.47;2.50;;;;;;;1.27;83.62;100912.53;5017142;28;20287;-75
2022/04/01 09:48:40;;;;;;;5.10;2.63;;;;;;;1.30;83.93;100920.41;5025048;28;20033;-75
2022/04/01 09:51:09;;;;;;;6.32;2.45;;;;;;;1.30;84.74;100917.84;5021374;28;20021;-75
2022/04/01 09:53:35;;;;;;;5.75;2.63;;;;;;;1.31;83.33;100914.50;5026316;28;20097;-75
2022/04/01 09:56:00;;;;;;;7.72;2.60;;;;;;;1.32;84.32;100919.72;5026515;28;20018;-75
2022/04/01 09:58:25;;;;;;;4.90;2.20;;;;;;;1.34;83.62;100920.69;5026211;28;20021;-78
2022/04/01 10:00:52;;;;;;;4.75;2.20;;;;;;;1.36;84.09;100914.00;5018644;28;20268;-78
2022/04/01 10:03:19;;;;;;;4.43;2.40;;;;;;;1.40;83.96;100927.88;5022271;28;20021;-78
2022/04/01 10:05:45;;;;;;;6.13;2.40;;;;;;;1.38;83.43;100924.34;5020924;28;20033;-78
2022/04/01 10:08:11;;;;;;;5.30;2.17;;;;;;;1.41;84.13;100923.66;5025142;28;20022;-78
2022/04/01 10:10:38;;;;;;;4.00;1.85;;;;;;;1.39;83.01;100924.44;5025922;28;20049;-78
2022/04/01 10:13:10;;;;;;;3.92;2.00;;;;;;;1.40;83.14;100922.75;5026087;28;20216;-77
2022/04/01 10:15:37;;;;;;;5.00;2.10;;;;;;;1.38;82.74;100921.78;5023794;28;20080;-78
2022/04/01 10:18:02;;;;;;;4.90;2.13;;;;;;;1.38;83.67;100924.34;5014004;28;20101;-78
2022/04/01 10:20:33;;;;;;;4.97;2.38;;;;;;;1.41;84.22;100923.66;5019854;28;20018;-78
2022/04/01 10:23:03;;;;;;;6.45;2.30;;;;;;;1.42;83.46;100926.31;5022560;28;20048;-78
2022/04/01 10:25:39;;;;;;;4.97;2.15;;;;;;;1.45;83.14;100923.94;5025638;28;20018;-78
2022/04/01 10:28:06;;;;;;;4.10;2.10;;;;;;;1.47;82.90;100924.03;5023865;28;20014;-78
2022/04/01 10:30:32;;;;;;;4.63;2.30;;;;;;;1.49;83.24;100931.03;5021064;28;20060;-78
2022/04/01 10:32:58;;;;;;;5.15;2.20;;;;;;;1.51;83.08;100924.31;5025533;28;20322;-78
2022/04/01 10:35:30;;;;;;;5.78;2.53;;;;;;;1.54;82.83;100919.34;5021223;28;20033;-78
2022/04/01 10:38:18;;;;;;;4.70;2.38;;;;;;;1.59;82.77;100931.59;5024671;28;20084;-78
2022/04/01 10:40:46;;;;;;;6.68;2.70;;;;;;;1.61;82.16;100924.84;5022640;28;20044;-78
2022/04/01 10:43:21;;;;;;;4.78;2.40;;;;;;;1.63;82.34;100934.44;5016595;28;20064;-77
2022/04/01 10:46:07;;;;;;;6.55;2.80;;;;;;;1.66;82.82;100938.88;5016185;28;20252;-78
2022/04/01 10:51:39;;;;;;;4.78;2.55;;;;;;;1.68;81.56;100934.72;5022359;28;20028;-78
2022/04/01 10:54:12;;;;;;;6.40;3.13;;;;;;;1.66;80.96;100939.75;5020416;28;20029;-78
2022/04/01 10:56:39;;;;;;;6.47;3.65;;;;;;;1.68;81.82;100947.56;5023443;28;20080;-78
2022/04/01 10:59:17;;;;;;;6.10;3.08;;;;;;;1.70;80.65;100948.56;5019100;28;20041;-77
2022/04/01 11:01:52;;;;;;;7.10;3.70;;;;;;;1.70;81.06;100944.28;5022702;28;20042;-78
2022/04/01 11:04:17;;;;;;;6.53;3.60;;;;;;;1.70;79.73;100952.00;5025028;28;20129;-78
2022/04/01 11:07:05;;;;;;;7.22;3.58;;;;;;;1.71;81.36;100952.91;5025119;28;20154;-78
2022/04/01 11:09:50;;;;;;;6.35;3.63;;;;;;;1.71;80.70;100963.19;5019629;28;20045;-78
2022/04/01 11:12:15;;;;;;;6.40;3.72;;;;;;;1.71;81.49;100955.47;5023222;28;20025;-77
2022/04/01 11:14:56;;;;;;;7.40;4.18;;;;;;;1.74;80.83;100963.38;5017677;28;20063;-78
2022/04/01 11:17:26;;;;;;;7.13;4.07;;;;;;;1.75;80.36;100970.25;5019404;28;20094;-84
2022/04/01 11:20:01;;;;;;;6.47;3.75;;;;;;;1.76;80.54;100964.34;5016944;28;20024;-80
2022/04/01 11:22:34;;;;;;;9.63;4.68;;;;;;;1.78;81.45;100962.72;5012659;28;20271;-80
2022/04/01 11:24:59;;;;;;;7.25;4.40;;;;;;;1.79;80.07;100964.50;5022832;28;20097;-80
2022/04/01 11:27:25;;;;;;;7.90;4.65;;;;;;;1.80;79.94;100968.88;5023024;28;20042;-77
2022/04/01 11:30:14;;;;;;;8.20;4.45;;;;;;;1.81;79.28;100972.31;5020359;28;20253;-77
2022/04/01 11:32:44;;;;;;;8.70;4.72;;;;;;;1.81;79.90;100973.22;5023811;28;20034;-76
2022/04/01 11:35:13;;;;;;;7.90;4.45;;;;;;;1.79;79.27;100971.34;5023815;28;20072;-76
2022/04/01 11:37:41;;;;;;;8.33;4.60;;;;;;;1.78;79.99;100973.00;5023122;28;20022;-77
2022/04/01 11:40:11;;;;;;;7.20;4.53;;;;;;;1.80;79.22;100973.13;5024246;28;20372;-76
2022/04/01 11:42:52;;;;;;;7.65;4.60;;;;;;;1.81;79.59;100968.09;5024197;28;20048;-77
2022/04/01 11:45:18;;;;;;;8.65;4.70;;;;;;;1.83;78.67;100975.88;5015782;28;20260;-77
2022/04/01 11:47:44;;;;;;;7.68;4.70;;;;;;;1.83;79.39;100979.31;5023147;28;20037;-77
2022/04/01 11:50:11;;;;;;;8.07;5.10;;;;;;;1.84;79.18;100969.91;5020567;28;20021;-77